Time;durP1;ratioP1;P1;durP2;ratioP2;P2;SDS_P1;SDS_P2;PMS_P1;PMS_P2;Temp;Humidity;BMP_temperature;BMP_pressure;BME280_temperature;BME280_humidity;BME280_pressure;Samples;Min_cycle;Max_cycle;Signal;HPM_P1;HPM_P2
2022/04/24 00:01:04;;;;;;;;;;;14.00;79.10;;;;;;5012988;28;19979;-72
2022/04/24 00:03:29;;;;;;;;;;;14.00;79.50;;;;;;5013392;28;19971;-74
2022/04/24 00:05:54;;;;;;;;;;;13.90;79.80;;;;;;5013367;28;19909;-74
2022/04/24 00:08:20;;;;;;;;;;;13.90;80.10;;;;;;5012923;28;19917;-74
2022/04/24 00:10:45;;;;;;;;;;;13.90;80.40;;;;;;5013040;28;20290;-73
2022/04/24 00:13:11;;;;;;;;;;;13.90;80.50;;;;;;5030796;28;20317;-73
2022/04/24 00:15:37;;;;;;;;;;;13.80;80.50;;;;;;5032467;28;19913;-74
2022/04/24 00:18:03;;;;;;;;;;;13.70;80.80;;;;;;5031947;28;20334;-73
2022/04/24 00:20:28;;;;;;;;;;;13.60;81.10;;;;;;5031853;28;19909;-74
2022/04/24 00:22:54;;;;;;;;;;;13.60;81.60;;;;;;5031604;28;20318;-73
2022/04/24 00:25:19;;;;;;;;;;;13.50;82.00;;;;;;5029311;28;19913;-74
2022/04/24 00:27:45;;;;;;;;;;;13.40;82.20;;;;;;5031781;28;19921;-74
2022/04/24 00:30:11;;;;;;;;;;;13.40;82.50;;;;;;5032108;28;19920;-74
2022/04/24 00:32:36;;;;;;;;;;;13.50;82.60;;;;;;5032559;28;19909;-74
2022/04/24 00:35:02;;;;;;;;;;;13.50;82.60;;;;;;5032597;28;19932;-73
2022/04/24 00:37:28;;;;;;;;;;;13.40;82.90;;;;;;5032554;28;19909;-74
2022/04/24 00:39:53;;;;;;;;;;;13.30;83.30;;;;;;5031908;28;19913;-74
2022/04/24 00:42:19;;;;;;;;;;;13.30;83.40;;;;;;5032023;28;19919;-74
2022/04/24 00:44:44;;;;;;;;;;;13.30;83.50;;;;;;5032179;28;19920;-74
2022/04/24 00:47:14;;;;;;;;;;;13.30;83.70;;;;;;5032077;28;19917;-73
2022/04/24 00:49:40;;;;;;;;;;;13.20;84.10;;;;;;5032153;28;19971;-73
2022/04/24 00:52:05;;;;;;;;;;;13.20;84.50;;;;;;5032390;28;19963;-73
2022/04/24 00:54:32;;;;;;;;;;;13.10;85.00;;;;;;5031376;28;20317;-74
2022/04/24 00:56:57;;;;;;;;;;;13.20;85.20;;;;;;5032381;28;19915;-74
2022/04/24 00:59:23;;;;;;;;;;;13.20;85.30;;;;;;5031916;28;19913;-74
2022/04/24 01:01:48;;;;;;;;;;;13.20;85.60;;;;;;5032043;28;19909;-74
2022/04/24 01:04:15;;;;;;;;;;;13.20;85.80;;;;;;5032147;28;19909;-74
2022/04/24 01:06:41;;;;;;;;;;;13.20;85.90;;;;;;5032178;28;19916;-74
2022/04/24 01:09:08;;;;;;;;;;;13.10;86.30;;;;;;5032091;28;20301;-72
2022/04/24 01:11:34;;;;;;;;;;;13.10;86.70;;;;;;5032134;28;19913;-75
2022/04/24 01:13:59;;;;;;;;;;;13.10;86.80;;;;;;5031856;28;20008;-73
2022/04/24 01:16:25;;;;;;;;;;;13.10;86.90;;;;;;5031289;28;19971;-74
2022/04/24 01:18:50;;;;;;;;;;;13.00;87.20;;;;;;5031162;28;19918;-73
2022/04/24 01:21:16;;;;;;;;;;;12.90;87.60;;;;;;5031778;28;20397;-72
2022/04/24 01:23:41;;;;;;;;;;;12.70;88.20;;;;;;5031942;28;19909;-73
2022/04/24 01:26:06;;;;;;;;;;;12.60;88.90;;;;;;5032185;28;20007;-73
2022/04/24 01:28:32;;;;;;;;;;;12.60;89.30;;;;;;5031847;28;19960;-73
2022/04/24 01:30:57;;;;;;;;;;;12.50;89.70;;;;;;5034347;28;20036;-72
2022/04/24 01:33:23;;;;;;;;;;;12.60;90.00;;;;;;5046989;28;19924;-74
2022/04/24 01:35:48;;;;;;;;;;;12.50;90.00;;;;;;5049809;28;19909;-73
2022/04/24 01:38:14;;;;;;;;;;;12.50;90.20;;;;;;5048797;28;19948;-72
2022/04/24 01:40:39;;;;;;;;;;;12.40;90.30;;;;;;5049814;28;19920;-74
2022/04/24 01:43:05;;;;;;;;;;;12.50;90.50;;;;;;5050944;28;19938;-73
2022/04/24 01:45:30;;;;;;;;;;;12.40;90.40;;;;;;5046941;28;19955;-74
2022/04/24 01:47:56;;;;;;;;;;;12.40;90.60;;;;;;5032401;28;19961;-73
2022/04/24 01:50:21;;;;;;;;;;;12.40;90.80;;;;;;5035939;28;19936;-73
2022/04/24 01:52:47;;;;;;;;;;;12.30;90.70;;;;;;5035848;28;19916;-73
2022/04/24 01:55:12;;;;;;;;;;;12.30;90.80;;;;;;5035712;28;19960;-73
2022/04/24 01:57:38;;;;;;;;;;;12.20;90.90;;;;;;5035636;28;19988;-73
2022/04/24 02:00:03;;;;;;;;;;;12.20;91.00;;;;;;5035009;28;19910;-74
2022/04/24 02:02:29;;;;;;;;;;;12.10;91.30;;;;;;5034479;28;19909;-73
2022/04/24 02:04:54;;;;;;;;;;;12.00;91.30;;;;;;5035713;28;19913;-73
2022/04/24 02:07:20;;;;;;;;;;;11.90;91.60;;;;;;5035161;28;20270;-73
2022/04/24 02:09:45;;;;;;;;;;;11.90;91.80;;;;;;5035242;28;19909;-73
2022/04/24 02:12:11;;;;;;;;;;;11.80;91.90;;;;;;5035512;28;19909;-73
2022/04/24 02:14:37;;;;;;;;;;;11.70;92.10;;;;;;5034474;28;20011;-73
2022/04/24 02:17:03;;;;;;;;;;;11.80;92.30;;;;;;5035300;28;19913;-73
2022/04/24 02:19:28;;;;;;;;;;;11.80;92.30;;;;;;5034782;28;19909;-74
2022/04/24 02:21:54;;;;;;;;;;;11.80;92.50;;;;;;5035204;28;19913;-73
2022/04/24 02:24:19;;;;;;;;;;;11.80;92.50;;;;;;5034635;28;20067;-73
2022/04/24 02:26:45;;;;;;;;;;;11.80;92.40;;;;;;5034813;28;19920;-74
2022/04/24 02:29:10;;;;;;;;;;;11.80;92.60;;;;;;5034681;28;19924;-73
2022/04/24 02:31:35;;;;;;;;;;;11.60;92.70;;;;;;5034958;28;20314;-73
2022/04/24 02:34:01;;;;;;;;;;;11.50;93.00;;;;;;5035082;28;19956;-73
2022/04/24 02:36:26;;;;;;;;;;;11.50;93.20;;;;;;5033115;28;19963;-73
2022/04/24 02:38:52;;;;;;;;;;;11.40;93.40;;;;;;5034542;28;19909;-73
2022/04/24 02:41:17;;;;;;;;;;;11.40;93.50;;;;;;5034067;28;19917;-73
2022/04/24 02:43:43;;;;;;;;;;;11.50;93.50;;;;;;5034606;28;19959;-73
2022/04/24 02:46:08;;;;;;;;;;;11.50;93.50;;;;;;5034557;28;19913;-73
2022/04/24 02:48:33;;;;;;;;;;;11.50;93.40;;;;;;5034174;28;19917;-73
2022/04/24 02:50:59;;;;;;;;;;;11.50;93.50;;;;;;5038644;23;19930;-71
2022/04/24 02:53:24;;;;;;;;;;;11.50;93.40;;;;;;5014179;28;19925;-73
2022/04/24 02:55:50;;;;;;;;;;;11.50;93.50;;;;;;5016515;28;19932;-71
2022/04/24 02:58:15;;;;;;;;;;;11.60;93.60;;;;;;5017467;28;19909;-71
2022/04/24 03:00:49;;;;;;;;;;;11.70;93.60;;;;;;5016387;28;20068;-70
2022/04/24 03:03:16;;;;;;;;;;;11.80;93.30;;;;;;5014442;28;20016;-73
2022/04/24 03:05:41;;;;;;;;;;;11.60;93.20;;;;;;5031920;28;19910;-71
2022/04/24 03:08:07;;;;;;;;;;;11.60;93.30;;;;;;5013641;28;19924;-71
2022/04/24 03:10:32;;;;;;;;;;;11.60;93.30;;;;;;5013943;28;20005;-71
2022/04/24 03:12:58;;;;;;;;;;;11.40;93.60;;;;;;5014214;28;20297;-70
2022/04/24 03:15:23;;;;;;;;;;;11.40;93.80;;;;;;5013120;28;19920;-69
2022/04/24 03:17:50;;;;;;;;;;;11.30;93.70;;;;;;5012881;28;19956;-68
2022/04/24 03:20:15;;;;;;;;;;;11.30;93.90;;;;;;5013441;28;20275;-68
2022/04/24 03:22:41;;;;;;;;;;;11.30;93.90;;;;;;5014025;28;19913;-69
2022/04/24 03:25:07;;;;;;;;;;;11.30;94.00;;;;;;5014012;28;20294;-69
2022/04/24 03:27:33;;;;;;;;;;;11.40;94.10;;;;;;5013718;28;19984;-69
2022/04/24 03:29:58;;;;;;;;;;;11.40;93.70;;;;;;5013532;28;19910;-69
2022/04/24 03:32:24;;;;;;;;;;;11.30;93.80;;;;;;5013572;28;19913;-69
2022/04/24 03:34:50;;;;;;;;;;;11.30;93.80;;;;;;5013629;28;20055;-69
2022/04/24 03:37:15;;;;;;;;;;;11.20;93.80;;;;;;5013215;28;19968;-70
2022/04/24 03:39:40;;;;;;;;;;;11.20;94.00;;;;;;5013396;28;19953;-69
2022/04/24 03:42:06;;;;;;;;;;;11.20;94.00;;;;;;5013456;28;19918;-69
2022/04/24 03:44:32;;;;;;;;;;;11.10;94.20;;;;;;5013916;28;19910;-68
2022/04/24 03:46:58;;;;;;;;;;;11.10;94.30;;;;;;5013625;28;20305;-69
2022/04/24 03:49:24;;;;;;;;;;;11.10;94.50;;;;;;5013201;28;19913;-69
2022/04/24 03:51:49;;;;;;;;;;;11.10;94.50;;;;;;5011449;28;19914;-69
2022/04/24 03:54:14;;;;;;;;;;;11.10;94.30;;;;;;5009908;28;20437;-69
2022/04/24 03:56:40;;;;;;;;;;;11.10;94.40;;;;;;5013173;28;20294;-70
2022/04/24 03:59:05;;;;;;;;;;;11.10;94.30;;;;;;5012766;28;19968;-69
2022/04/24 04:01:31;;;;;;;;;;;11.00;94.40;;;;;;5013063;28;19933;-69
2022/04/24 04:03:57;;;;;;;;;;;11.00;94.50;;;;;;5013159;28;19920;-68
2022/04/24 04:06:23;;;;;;;;;;;11.00;94.60;;;;;;5012887;28;19949;-68
2022/04/24 04:08:48;;;;;;;;;;;10.90;94.80;;;;;;5012750;28;19948;-68
2022/04/24 04:11:14;;;;;;;;;;;10.90;95.00;;;;;;5012502;28;19910;-68
2022/04/24 04:13:39;;;;;;;;;;;11.10;95.00;;;;;;5013069;28;19917;-68
2022/04/24 04:16:05;;;;;;;;;;;11.00;94.90;;;;;;5011607;28;19909;-68
2022/04/24 04:18:30;;;;;;;;;;;11.00;94.90;;;;;;5012929;28;19918;-68
2022/04/24 04:20:56;;;;;;;;;;;11.00;94.90;;;;;;5012000;28;19919;-68
2022/04/24 04:23:21;;;;;;;;;;;10.90;95.20;;;;;;5012726;28;19910;-68
2022/04/24 04:25:46;;;;;;;;;;;10.80;95.40;;;;;;5012699;28;19984;-68
2022/04/24 04:28:12;;;;;;;;;;;10.80;95.50;;;;;;5012794;28;20008;-68
2022/04/24 04:30:37;;;;;;;;;;;10.80;95.70;;;;;;5012436;28;19916;-69
2022/04/24 04:33:03;;;;;;;;;;;10.70;95.70;;;;;;5012609;28;19910;-69
2022/04/24 04:35:28;;;;;;;;;;;10.70;95.90;;;;;;5012042;28;19996;-69
2022/04/24 04:37:54;;;;;;;;;;;10.60;96.00;;;;;;5010874;28;19909;-67
2022/04/24 04:40:20;;;;;;;;;;;10.60;96.40;;;;;;5012058;28;19929;-69
2022/04/24 04:42:47;;;;;;;;;;;10.60;96.40;;;;;;5012526;28;19917;-69
2022/04/24 04:45:13;;;;;;;;;;;10.70;96.40;;;;;;5012515;28;20380;-69
2022/04/24 04:47:39;;;;;;;;;;;10.80;96.40;;;;;;5012264;28;19967;-68
2022/04/24 04:50:04;;;;;;;;;;;10.80;96.40;;;;;;5011895;28;20012;-68
2022/04/24 04:52:30;;;;;;;;;;;10.70;96.50;;;;;;5012381;28;19909;-69
2022/04/24 04:54:55;;;;;;;;;;;10.60;96.80;;;;;;5012270;28;19909;-69
2022/04/24 04:57:20;;;;;;;;;;;10.40;97.20;;;;;;5012557;28;20337;-68
2022/04/24 04:59:46;;;;;;;;;;;10.30;97.50;;;;;;5011740;28;20385;-69
2022/04/24 05:02:11;;;;;;;;;;;10.30;97.90;;;;;;5012229;28;19910;-68
2022/04/24 05:04:38;;;;;;;;;;;10.40;98.00;;;;;;5012284;28;19914;-68
2022/04/24 05:07:04;;;;;;;;;;;10.30;98.10;;;;;;5012206;28;19910;-69
2022/04/24 05:09:29;;;;;;;;;;;10.20;98.40;;;;;;5010290;28;20008;-69
2022/04/24 05:11:55;;;;;;;;;;;10.20;98.50;;;;;;5012392;28;19910;-68
2022/04/24 05:14:20;;;;;;;;;;;10.20;98.70;;;;;;5012204;28;19931;-69
2022/04/24 05:16:46;;;;;;;;;;;10.20;98.90;;;;;;5012235;28;19913;-69
2022/04/24 05:19:11;;;;;;;;;;;10.30;99.00;;;;;;5012011;28;19960;-68
2022/04/24 05:21:37;;;;;;;;;;;10.40;98.60;;;;;;5011892;28;19910;-69
2022/04/24 05:24:02;;;;;;;;;;;10.40;98.50;;;;;;5013747;28;20436;-68
2022/04/24 05:26:28;;;;;;;;;;;10.50;98.70;;;;;;5016128;28;19945;-69
2022/04/24 05:28:53;;;;;;;;;;;10.40;98.70;;;;;;5016127;28;19919;-69
2022/04/24 05:31:19;;;;;;;;;;;10.40;98.90;;;;;;5015707;28;20003;-70
2022/04/24 05:33:44;;;;;;;;;;;10.50;98.80;;;;;;5015900;28;19972;-69
2022/04/24 05:36:10;;;;;;;;;;;10.60;98.70;;;;;;5015260;28;20387;-69
2022/04/24 05:38:35;;;;;;;;;;;10.70;98.70;;;;;;5016141;28;20432;-69
2022/04/24 05:41:01;;;;;;;;;;;10.70;98.50;;;;;;5015394;28;19932;-69
2022/04/24 05:43:27;;;;;;;;;;;10.80;98.50;;;;;;5015977;28;19916;-69
2022/04/24 05:45:52;;;;;;;;;;;10.80;98.30;;;;;;5016431;28;20390;-69
2022/04/24 05:48:18;;;;;;;;;;;10.80;98.20;;;;;;5017373;28;19936;-68
2022/04/24 05:50:44;;;;;;;;;;;10.80;98.40;;;;;;5038895;28;19918;-68
2022/04/24 05:53:09;;;;;;;;;;;10.80;98.50;;;;;;5039503;28;19910;-69
2022/04/24 05:55:36;;;;;;;;;;;10.70;98.50;;;;;;5040478;28;19969;-68
2022/04/24 05:58:02;;;;;;;;;;;10.70;98.40;;;;;;5040893;28;19897;-65
2022/04/24 06:00:27;;;;;;;;;;;10.70;98.70;;;;;;5029236;28;19909;-69
2022/04/24 06:02:52;;;;;;;;;;;10.80;98.70;;;;;;5015915;28;19910;-69
2022/04/24 06:05:18;;;;;;;;;;;10.80;98.30;;;;;;5015352;28;19913;-69
2022/04/24 06:07:43;;;;;;;;;;;10.70;98.70;;;;;;5015405;28;20380;-68
2022/04/24 06:10:10;;;;;;;;;;;10.80;98.80;;;;;;5014110;28;20073;-68
2022/04/24 06:12:45;;;;;;;;;;;11.00;98.60;;;;;;5014659;28;19910;-68
2022/04/24 06:15:15;;;;;;;;;;;11.00;98.20;;;;;;5014513;28;19941;-69
2022/04/24 06:17:43;;;;;;;;;;;11.20;98.30;;;;;;5014507;28;20068;-69
2022/04/24 06:20:09;;;;;;;;;;;11.20;97.80;;;;;;5014351;28;19956;-70
2022/04/24 06:22:43;;;;;;;;;;;11.30;97.80;;;;;;5014504;28;19991;-69
2022/04/24 06:25:09;;;;;;;;;;;11.40;97.40;;;;;;5014740;28;20275;-69
2022/04/24 06:27:34;;;;;;;;;;;11.30;97.40;;;;;;5008344;28;20012;-69
2022/04/24 06:30:01;;;;;;;;;;;11.40;97.50;;;;;;4994458;28;19909;-69
2022/04/24 06:32:28;;;;;;;;;;;11.50;97.30;;;;;;4994961;28;20393;-69
2022/04/24 06:34:53;;;;;;;;;;;11.40;97.20;;;;;;4994687;28;19937;-69
2022/04/24 06:37:19;;;;;;;;;;;11.40;97.40;;;;;;4994647;28;19909;-69
2022/04/24 06:39:44;;;;;;;;;;;11.60;97.30;;;;;;4994538;28;19910;-69
2022/04/24 06:42:10;;;;;;;;;;;11.50;97.00;;;;;;4995292;28;19920;-68
2022/04/24 06:44:36;;;;;;;;;;;11.60;96.90;;;;;;5014075;28;19993;-70
2022/04/24 06:47:01;;;;;;;;;;;11.70;97.00;;;;;;5014666;28;19917;-69
2022/04/24 06:49:27;;;;;;;;;;;11.80;96.60;;;;;;5015905;28;19922;-70
2022/04/24 06:51:52;;;;;;;;;;;11.90;96.50;;;;;;5028671;28;19905;-68
2022/04/24 06:54:17;;;;;;;;;;;11.90;96.10;;;;;;5039270;28;20013;-66
2022/04/24 06:56:43;;;;;;;;;;;11.90;96.30;;;;;;5039739;28;19921;-68
2022/04/24 06:59:08;;;;;;;;;;;12.00;96.10;;;;;;5037002;28;19928;-67
2022/04/24 07:01:34;;;;;;;;;;;12.00;96.20;;;;;;5034970;28;19961;-65
2022/04/24 07:03:59;;;;;;;;;;;12.10;96.10;;;;;;5000867;28;19953;-68
2022/04/24 07:06:25;;;;;;;;;;;12.10;96.00;;;;;;4994817;28;20391;-68
2022/04/24 07:08:50;;;;;;;;;;;12.20;95.60;;;;;;4994837;28;19926;-70
2022/04/24 07:11:17;;;;;;;;;;;12.20;95.70;;;;;;4994134;28;19917;-69
2022/04/24 07:13:43;;;;;;;;;;;12.20;95.80;;;;;;4994406;28;19917;-69
2022/04/24 07:16:09;;;;;;;;;;;12.30;95.60;;;;;;4994487;28;20017;-69
2022/04/24 07:18:35;;;;;;;;;;;12.30;95.30;;;;;;5012416;28;20366;-70
2022/04/24 07:21:02;;;;;;;;;;;12.30;95.30;;;;;;5013318;28;20114;-70
2022/04/24 07:23:28;;;;;;;;;;;12.30;95.40;;;;;;5013582;28;19909;-69
2022/04/24 07:25:53;;;;;;;;;;;12.30;95.60;;;;;;5013579;28;19963;-69
2022/04/24 07:28:19;;;;;;;;;;;12.40;95.40;;;;;;5013445;28;19917;-71
2022/04/24 07:30:45;;;;;;;;;;;12.40;95.60;;;;;;5013066;28;20290;-71
2022/04/24 07:33:11;;;;;;;;;;;12.50;95.50;;;;;;5013568;28;19957;-70
2022/04/24 07:35:38;;;;;;;;;;;12.70;95.40;;;;;;5013275;28;19913;-70
2022/04/24 07:38:03;;;;;;;;;;;12.80;94.90;;;;;;5013651;28;19917;-71
2022/04/24 07:40:30;;;;;;;;;;;12.80;94.70;;;;;;5013380;28;19913;-69
2022/04/24 07:42:57;;;;;;;;;;;13.00;94.70;;;;;;5012291;28;19909;-72
2022/04/24 07:45:23;;;;;;;;;;;13.00;94.10;;;;;;5013448;28;19910;-70
2022/04/24 07:47:49;;;;;;;;;;;13.10;94.10;;;;;;5013175;28;20374;-70
2022/04/24 07:50:15;;;;;;;;;;;13.20;93.70;;;;;;5011800;28;19928;-70
2022/04/24 07:52:41;;;;;;;;;;;13.20;93.60;;;;;;5013110;28;19909;-70
2022/04/24 07:55:07;;;;;;;;;;;13.30;93.60;;;;;;5012979;28;19963;-70
2022/04/24 07:57:32;;;;;;;;;;;13.40;93.50;;;;;;5013028;28;19914;-69
2022/04/24 07:59:58;;;;;;;;;;;13.40;93.50;;;;;;5013122;28;19916;-70
2022/04/24 08:02:23;;;;;;;;;;;13.50;93.30;;;;;;5005673;28;19917;-68
2022/04/24 08:04:49;;;;;;;;;;;13.40;93.00;;;;;;5017959;28;19956;-67
2022/04/24 08:07:15;;;;;;;;;;;13.50;93.50;;;;;;5017511;28;19902;-68
2022/04/24 08:09:41;;;;;;;;;;;13.50;93.00;;;;;;5018193;28;19913;-67
2022/04/24 08:12:07;;;;;;;;;;;13.70;93.20;;;;;;5014300;28;19933;-68
2022/04/24 08:14:33;;;;;;;;;;;13.80;93.00;;;;;;5003033;28;19910;-70
2022/04/24 08:16:59;;;;;;;;;;;13.80;93.10;;;;;;4993657;28;19914;-71
2022/04/24 08:19:24;;;;;;;;;;;13.80;92.90;;;;;;4993336;28;19921;-70
2022/04/24 08:21:50;;;;;;;;;;;13.70;93.00;;;;;;4993287;28;19910;-71
2022/04/24 08:24:15;;;;;;;;;;;13.60;93.10;;;;;;4992781;28;19909;-69
2022/04/24 08:26:40;;;;;;;;;;;13.40;93.40;;;;;;4992690;28;19909;-70
2022/04/24 08:29:06;;;;;;;;;;;13.50;93.40;;;;;;4992489;28;19929;-71
2022/04/24 08:31:31;;;;;;;;;;;13.40;93.30;;;;;;4992680;28;19916;-70
2022/04/24 08:33:57;;;;;;;;;;;13.50;93.20;;;;;;4992572;28;19909;-70
2022/04/24 08:36:23;;;;;;;;;;;13.80;93.40;;;;;;4991963;28;19910;-69
2022/04/24 08:38:49;;;;;;;;;;;13.90;92.80;;;;;;4992543;28;19963;-68
2022/04/24 08:41:15;;;;;;;;;;;13.80;92.90;;;;;;4992220;28;20363;-69
2022/04/24 08:43:41;;;;;;;;;;;13.90;93.10;;;;;;4992680;28;19910;-68
2022/04/24 08:46:07;;;;;;;;;;;14.10;92.90;;;;;;4992558;28;19968;-69
2022/04/24 08:48:33;;;;;;;;;;;14.20;92.70;;;;;;4992214;28;20363;-69
2022/04/24 08:51:00;;;;;;;;;;;14.30;92.50;;;;;;4991735;28;19924;-69
2022/04/24 08:53:27;;;;;;;;;;;14.00;92.40;;;;;;4992565;28;19949;-70
2022/04/24 08:55:52;;;;;;;;;;;14.10;92.70;;;;;;4992507;28;19910;-68
2022/04/24 08:58:18;;;;;;;;;;;14.20;92.30;;;;;;4991456;28;19910;-70
2022/04/24 09:00:43;;;;;;;;;;;14.50;92.30;;;;;;4992410;28;20031;-69
2022/04/24 09:03:09;;;;;;;;;;;14.60;91.60;;;;;;4992478;28;19921;-70
2022/04/24 09:05:35;;;;;;;;;;;14.70;91.40;;;;;;4992730;28;19976;-71
2022/04/24 09:08:04;;;;;;;;;;;14.80;91.30;;;;;;5004483;28;19925;-67
2022/04/24 09:10:29;;;;;;;;;;;15.10;91.40;;;;;;5016891;28;19929;-70
2022/04/24 09:12:55;;;;;;;;;;;15.20;91.20;;;;;;5017602;28;19929;-67
2022/04/24 09:15:20;;;;;;;;;;;15.20;90.50;;;;;;5017639;28;19918;-69
2022/04/24 09:17:46;;;;;;;;;;;15.20;90.60;;;;;;5017903;28;20322;-69
2022/04/24 09:20:16;;;;;;;;;;;15.20;90.60;;;;;;5011343;28;20293;-69
2022/04/24 09:22:42;;;;;;;;;;;15.40;90.60;;;;;;5012377;28;19914;-70
2022/04/24 09:25:10;;;;;;;;;;;15.50;90.20;;;;;;5012112;28;19910;-70
2022/04/24 09:27:35;;;;;;;;;;;15.20;90.30;;;;;;5011687;28;20250;-69
2022/04/24 09:30:05;;;;;;;;;;;15.30;90.30;;;;;;5011338;28;19910;-70
2022/04/24 09:32:36;;;;;;;;;;;15.40;90.10;;;;;;5011549;28;19949;-70
2022/04/24 09:35:02;;;;;;;;;;;15.50;90.40;;;;;;5011685;28;20263;-70
2022/04/24 09:37:36;;;;;;;;;;;15.80;90.10;;;;;;5010784;28;20312;-69
2022/04/24 09:40:03;;;;;;;;;;;16.00;89.80;;;;;;5011136;28;19916;-68
2022/04/24 09:42:29;;;;;;;;;;;15.80;88.60;;;;;;5011332;28;20036;-71
2022/04/24 09:44:54;;;;;;;;;;;15.70;89.40;;;;;;5011265;28;19961;-70
2022/04/24 09:47:24;;;;;;;;;;;15.80;89.10;;;;;;5011515;28;19910;-69
2022/04/24 09:49:50;;;;;;;;;;;15.80;89.00;;;;;;5010669;28;19940;-70
2022/04/24 09:52:16;;;;;;;;;;;15.80;88.50;;;;;;5011568;28;19909;-69
2022/04/24 09:54:43;;;;;;;;;;;16.10;89.80;;;;;;5010823;28;20000;-69
2022/04/24 09:57:09;;;;;;;;;;;16.30;88.00;;;;;;5011290;28;19975;-67
2022/04/24 09:59:36;;;;;;;;;;;16.00;87.50;;;;;;5010838;28;19913;-69
2022/04/24 10:02:03;;;;;;;;;;;15.90;88.60;;;;;;5002637;28;19910;-69
2022/04/24 10:04:28;;;;;;;;;;;15.80;88.70;;;;;;4990936;28;19910;-70
2022/04/24 10:06:54;;;;;;;;;;;16.10;88.70;;;;;;4991640;28;19914;-69
2022/04/24 10:09:20;;;;;;;;;;;16.40;88.20;;;;;;4991504;28;19925;-69
2022/04/24 10:11:46;;;;;;;;;;;16.50;87.10;;;;;;4994987;28;19987;-68
2022/04/24 10:14:14;;;;;;;;;;;16.70;86.60;;;;;;4995537;28;19945;-68
2022/04/24 10:16:57;;;;;;;;;;;16.70;85.10;;;;;;4997849;28;19914;-69
2022/04/24 10:19:37;;;;;;;;;;;16.60;85.20;;;;;;5014321;28;19909;-70
2022/04/24 10:22:12;;;;;;;;;;;16.80;86.60;;;;;;5014716;28;19909;-70
2022/04/24 10:24:39;;;;;;;;;;;16.90;84.70;;;;;;5014708;28;20371;-70
2022/04/24 10:27:05;;;;;;;;;;;16.90;85.10;;;;;;5014553;28;19918;-70
2022/04/24 10:29:30;;;;;;;;;;;17.10;83.80;;;;;;5014351;28;20244;-68
2022/04/24 10:31:56;;;;;;;;;;;17.20;83.60;;;;;;5014674;28;19960;-69
2022/04/24 10:34:23;;;;;;;;;;;17.10;82.70;;;;;;5015088;28;19992;-70
2022/04/24 10:36:57;;;;;;;;;;;17.00;83.90;;;;;;5015176;28;20361;-72
2022/04/24 10:39:24;;;;;;;;;;;17.30;84.30;;;;;;5023186;28;19932;-71
2022/04/24 10:41:54;;;;;;;;;;;17.60;83.20;;;;;;5022529;28;20291;-71
2022/04/24 10:44:20;;;;;;;;;;;17.40;80.80;;;;;;5019892;28;20005;-70
2022/04/24 10:46:47;;;;;;;;;;;17.10;81.30;;;;;;5015213;28;19952;-70
2022/04/24 10:49:13;;;;;;;;;;;17.00;81.30;;;;;;5012874;28;20004;-69
2022/04/24 10:51:42;;;;;;;;;;;17.00;81.50;;;;;;5014996;28;19921;-71
2022/04/24 10:54:18;;;;;;;;;;;17.10;81.60;;;;;;5014885;28;20275;-70
2022/04/24 10:56:51;;;;;;;;;;;17.40;83.20;;;;;;5013961;28;20282;-71
2022/04/24 10:59:21;;;;;;;;;;;17.60;82.40;;;;;;5013650;28;19917;-71
2022/04/24 11:01:50;;;;;;;;;;;17.50;80.00;;;;;;5007302;28;20430;-69
2022/04/24 11:04:16;;;;;;;;;;;17.40;80.30;;;;;;4993813;28;19929;-70
2022/04/24 11:06:51;;;;;;;;;;;17.30;79.40;;;;;;4993868;28;20415;-71
2022/04/24 11:09:18;;;;;;;;;;;17.30;79.80;;;;;;4994003;28;19925;-72
2022/04/24 11:11:58;;;;;;;;;;;17.50;80.80;;;;;;4994603;28;19910;-69
2022/04/24 11:14:25;;;;;;;;;;;17.50;78.10;;;;;;4994571;28;19909;-73
2022/04/24 11:16:51;;;;;;;;;;;17.60;79.70;;;;;;4994272;28;20357;-69
2022/04/24 11:19:20;;;;;;;;;;;17.80;77.30;;;;;;4999894;28;20329;-69
2022/04/24 11:21:46;;;;;;;;;;;17.80;76.20;;;;;;5010478;28;19967;-68
2022/04/24 11:24:11;;;;;;;;;;;17.90;75.20;;;;;;5012316;28;19988;-68
2022/04/24 11:26:37;;;;;;;;;;;18.00;74.50;;;;;;5011921;28;19913;-71
2022/04/24 11:29:09;;;;;;;;;;;18.10;74.40;;;;;;5011356;28;19917;-68
2022/04/24 11:31:34;;;;;;;;;;;18.10;74.30;;;;;;4999761;28;19932;-69
2022/04/24 11:34:00;;;;;;;;;;;18.10;75.20;;;;;;5012451;28;19983;-69
2022/04/24 11:36:33;;;;;;;;;;;18.40;75.80;;;;;;5013104;28;19913;-68
2022/04/24 11:39:00;;;;;;;;;;;18.30;73.70;;;;;;5013344;28;19916;-69
2022/04/24 11:41:29;;;;;;;;;;;18.40;74.10;;;;;;5035745;23;20001;-74
2022/04/24 11:50:13;;;;;;;;;;;18.30;73.40;;;;;;5015315;28;19913;-73
2022/04/24 11:52:22;;;;;;;;;;;17.80;74.20;;;;;;4994143;28;20386;-73
2022/04/24 11:54:48;;;;;;;;;;;17.60;72.30;;;;;;4993916;28;19914;-72
2022/04/24 11:57:14;;;;;;;;;;;17.70;73.40;;;;;;4994266;28;19910;-72
2022/04/24 11:59:39;;;;;;;;;;;17.70;72.60;;;;;;4993725;28;19910;-72
2022/04/24 12:02:09;;;;;;;;;;;17.70;72.10;;;;;;4995817;28;19913;-73
2022/04/24 12:04:38;;;;;;;;;;;17.60;71.00;;;;;;4996137;28;20282;-73
2022/04/24 12:07:07;;;;;;;;;;;17.50;71.80;;;;;;4995531;28;20027;-72
2022/04/24 12:09:33;;;;;;;;;;;17.70;71.00;;;;;;4989433;28;19972;-73
2022/04/24 12:12:17;;;;;;;;;;;17.90;70.40;;;;;;4994371;28;19968;-73
2022/04/24 12:14:48;;;;;;;;;;;18.10;69.90;;;;;;4983748;28;19917;-75
2022/04/24 12:17:14;;;;;;;;;;;18.10;69.20;;;;;;4987174;28;19937;-73
2022/04/24 12:19:40;;;;;;;;;;;17.90;68.40;;;;;;4986773;28;20367;-74
2022/04/24 12:22:07;;;;;;;;;;;17.90;68.70;;;;;;4993247;28;19997;-73
2022/04/24 12:24:45;;;;;;;;;;;18.00;69.50;;;;;;4993240;28;19914;-73
2022/04/24 12:27:14;;;;;;;;;;;17.90;67.90;;;;;;4993907;28;19922;-72
2022/04/24 12:29:40;;;;;;;;;;;18.00;68.10;;;;;;4993842;28;19921;-73
2022/04/24 12:32:06;;;;;;;;;;;18.10;66.20;;;;;;4993321;28;20282;-73
2022/04/24 12:34:39;;;;;;;;;;;18.30;67.00;;;;;;4993817;28;19933;-73
2022/04/24 12:37:04;;;;;;;;;;;18.40;66.40;;;;;;4993441;28;19910;-73
2022/04/24 12:39:32;;;;;;;;;;;18.60;66.60;;;;;;4995350;28;19960;-74
2022/04/24 12:41:58;;;;;;;;;;;18.70;65.90;;;;;;4995357;28;19980;-73
2022/04/24 12:44:24;;;;;;;;;;;18.70;64.80;;;;;;4994788;28;20001;-73
2022/04/24 12:46:50;;;;;;;;;;;18.60;64.80;;;;;;4993642;28;20390;-74
2022/04/24 12:49:29;;;;;;;;;;;18.40;63.80;;;;;;4995032;28;20098;-74
2022/04/24 12:51:54;;;;;;;;;;;18.20;65.10;;;;;;4994812;28;19913;-73
2022/04/24 12:54:20;;;;;;;;;;;18.00;64.40;;;;;;4994642;28;20430;-73
2022/04/24 12:56:45;;;;;;;;;;;18.00;65.20;;;;;;4993349;28;20296;-73
2022/04/24 12:59:11;;;;;;;;;;;18.00;64.70;;;;;;4992505;28;20364;-73
2022/04/24 13:01:36;;;;;;;;;;;18.10;66.80;;;;;;4992744;28;20303;-73
2022/04/24 13:04:04;;;;;;;;;;;18.20;67.60;;;;;;4993355;28;19965;-73
2022/04/24 13:06:30;;;;;;;;;;;18.20;68.80;;;;;;5007860;28;20045;-73
2022/04/24 13:08:55;;;;;;;;;;;18.20;69.80;;;;;;4991897;28;19950;-73
2022/04/24 13:11:23;;;;;;;;;;;18.20;70.40;;;;;;4991467;28;19910;-73
2022/04/24 13:13:49;;;;;;;;;;;18.30;70.10;;;;;;4991402;28;19917;-73
2022/04/24 13:18:58;;;;;;;;;;;18.60;69.20;;;;;;4976803;28;19917;-73
2022/04/24 13:21:24;;;;;;;;;;;18.70;68.90;;;;;;4976029;28;19981;-73
2022/04/24 13:23:50;;;;;;;;;;;18.70;68.80;;;;;;4978428;28;19957;-73
2022/04/24 13:26:15;;;;;;;;;;;18.80;68.70;;;;;;4976373;28;19911;-73
2022/04/24 13:28:41;;;;;;;;;;;18.90;68.10;;;;;;4976211;28;19914;-73
2022/04/24 13:31:07;;;;;;;;;;;18.60;68.70;;;;;;4975927;28;19968;-73
2022/04/24 13:33:32;;;;;;;;;;;18.50;68.10;;;;;;4976329;28;19910;-73
2022/04/24 13:36:00;;;;;;;;;;;18.70;69.00;;;;;;4976039;28;19917;-73
2022/04/24 13:38:26;;;;;;;;;;;19.00;69.30;;;;;;4977363;28;19935;-73
2022/04/24 13:40:54;;;;;;;;;;;19.10;68.00;;;;;;4976670;28;19918;-74
2022/04/24 13:43:20;;;;;;;;;;;18.60;68.10;;;;;;4977735;28;20021;-73
2022/04/24 13:45:48;;;;;;;;;;;18.40;68.70;;;;;;4979816;28;19917;-73
2022/04/24 13:48:13;;;;;;;;;;;18.40;68.70;;;;;;4979746;28;19957;-72
2022/04/24 13:50:39;;;;;;;;;;;18.40;69.10;;;;;;4978217;28;19910;-73
2022/04/24 13:53:05;;;;;;;;;;;18.50;69.10;;;;;;4979757;28;19911;-74
2022/04/24 13:55:31;;;;;;;;;;;18.60;69.10;;;;;;4979655;28;19910;-73
2022/04/24 13:57:56;;;;;;;;;;;18.80;69.00;;;;;;4979234;28;19911;-74
2022/04/24 14:00:23;;;;;;;;;;;18.90;68.60;;;;;;4979261;28;20399;-73
2022/04/24 14:02:49;;;;;;;;;;;19.00;67.60;;;;;;4979690;28;19917;-74
2022/04/24 14:05:15;;;;;;;;;;;19.30;66.20;;;;;;4980286;28;19914;-74
2022/04/24 14:07:41;;;;;;;;;;;19.30;66.30;;;;;;4980227;28;19914;-74
2022/04/24 14:10:07;;;;;;;;;;;19.60;65.90;;;;;;4978162;28;20350;-75
2022/04/24 14:12:33;;;;;;;;;;;20.00;65.70;;;;;;4978575;28;20001;-73
2022/04/24 14:14:58;;;;;;;;;;;20.10;64.80;;;;;;4979109;28;20359;-73
2022/04/24 14:17:24;;;;;;;;;;;20.00;63.30;;;;;;4985441;28;20004;-74
2022/04/24 14:19:49;;;;;;;;;;;19.90;62.90;;;;;;4999409;28;19910;-74